createdAt,value
2022-10-17T00:00:51.267Z,152659.47
2022-10-17T00:03:17.504Z,152665.78
2022-10-17T00:05:47.624Z,152665.78
2022-10-17T00:08:15.396Z,152673.44
2022-10-17T00:10:42.251Z,152675.97
2022-10-17T00:13:09.260Z,152695.03
2022-10-17T00:15:35.122Z,152697.63
2022-10-17T00:18:01.401Z,152673.44
2022-10-17T00:20:29.665Z,152686.16
2022-10-17T00:22:56.496Z,152669.66
2022-10-17T00:25:22.460Z,152665.78
2022-10-17T00:27:48.214Z,152700.16
2022-10-17T00:30:16.019Z,152701.41
2022-10-17T00:32:41.846Z,152689.97
2022-10-17T00:35:08.437Z,152683.59
2022-10-17T00:37:34.720Z,152683.59
2022-10-17T00:40:00.606Z,152725.59
2022-10-17T00:42:27.705Z,152756.03
2022-10-17T00:45:16.542Z,152719.22
2022-10-17T00:47:47.576Z,152720.47
2022-10-17T00:50:14.561Z,152749.72
2022-10-17T00:52:41.100Z,152705.25
2022-10-17T00:55:29.573Z,152739.53
2022-10-17T00:57:57.281Z,152717.94
2022-10-17T01:00:24.180Z,152719.22
2022-10-17T01:02:50.057Z,152704.00
2022-10-17T01:05:18.038Z,152705.25
2022-10-17T01:07:46.426Z,152700.16
2022-10-17T01:10:14.195Z,152715.41
2022-10-17T01:13:00.526Z,152700.16
2022-10-17T01:15:52.338Z,152701.41
2022-10-17T01:18:36.268Z,152705.25
2022-10-17T01:21:28.258Z,152729.38
2022-10-17T01:24:17.826Z,152740.84
2022-10-17T01:27:11.106Z,152735.72
2022-10-17T01:29:52.002Z,152753.50
2022-10-17T01:32:49.342Z,152721.75
2022-10-17T01:35:15.011Z,152730.66
2022-10-17T01:37:47.632Z,152743.38
2022-10-17T01:40:41.505Z,152737.00
2022-10-17T01:43:23.792Z,152744.66
2022-10-17T01:45:56.467Z,152726.84
2022-10-17T01:48:25.861Z,152706.53
2022-10-17T01:50:57.868Z,152730.66
2022-10-17T01:53:31.086Z,152709.06
2022-10-17T01:56:00.394Z,152709.06
2022-10-17T01:58:33.310Z,152714.13
2022-10-17T02:01:02.679Z,152712.88
2022-10-17T02:03:31.570Z,152721.75
2022-10-17T02:05:57.527Z,152726.84
2022-10-17T02:08:41.927Z,152716.66
2022-10-17T02:11:15.810Z,152712.88
2022-10-17T02:14:03.022Z,152698.88
2022-10-17T02:16:51.861Z,152677.25
2022-10-17T02:19:42.551Z,152695.03
2022-10-17T02:22:24.734Z,152677.25
2022-10-17T02:24:59.390Z,152688.69
2022-10-17T02:27:47.001Z,152674.72
2022-10-17T02:30:43.820Z,152678.50
2022-10-17T02:33:44.171Z,152639.16
2022-10-17T02:36:19.784Z,152663.25
2022-10-17T02:38:46.286Z,152665.78
2022-10-17T02:41:16.351Z,152659.47
2022-10-17T02:43:44.701Z,152659.47
2022-10-17T02:46:19.981Z,152648.00
2022-10-17T02:49:00.429Z,152669.66
2022-10-17T02:51:36.395Z,152672.19
2022-10-17T02:54:36.458Z,152674.72
2022-10-17T02:57:09.961Z,152675.97
2022-10-17T02:59:36.907Z,152662.00
2022-10-17T03:02:06.475Z,152655.66
2022-10-17T03:04:33.083Z,152636.59
2022-10-17T03:06:59.161Z,152651.88
2022-10-17T03:09:25.050Z,152655.66
2022-10-17T03:11:50.985Z,152686.16
2022-10-17T03:14:16.793Z,152663.25
2022-10-17T03:16:43.104Z,152683.59
2022-10-17T03:19:08.910Z,152662.00
2022-10-17T03:21:36.907Z,152651.88
2022-10-17T03:24:03.635Z,152645.47
2022-10-17T03:26:29.571Z,152630.22
2022-10-17T03:28:55.748Z,152641.69
2022-10-17T03:31:21.832Z,152627.69
2022-10-17T03:33:47.595Z,152609.91
2022-10-17T03:36:16.394Z,152612.44
2022-10-17T03:38:42.911Z,152632.81
2022-10-17T03:41:09.502Z,152626.44
2022-10-17T03:43:36.076Z,152621.34
2022-10-17T03:46:02.925Z,152608.66
2022-10-17T03:48:30.090Z,152642.94
2022-10-17T03:51:07.449Z,152631.50
2022-10-17T03:53:33.700Z,152631.50
2022-10-17T03:56:16.892Z,152641.69
2022-10-17T03:58:43.472Z,152634.06
2022-10-17T04:01:11.786Z,152627.69
2022-10-17T04:03:38.303Z,152641.69
2022-10-17T04:06:04.947Z,152642.94
2022-10-17T04:08:31.136Z,152642.94
2022-10-17T04:11:05.606Z,152646.75
2022-10-17T04:13:32.576Z,152625.16
2022-10-17T04:16:06.654Z,152636.59
2022-10-17T04:18:33.196Z,152622.63
2022-10-17T04:21:05.619Z,152618.81
2022-10-17T04:23:31.830Z,152626.44
2022-10-17T04:25:59.342Z,152627.69
2022-10-17T04:28:26.631Z,152655.66
2022-10-17T04:31:00.585Z,152662.00
2022-10-17T04:34:27.798Z,152673.44
2022-10-17T04:36:53.617Z,152682.31
2022-10-17T04:39:19.536Z,152686.16
2022-10-17T04:41:45.419Z,152693.75
2022-10-17T04:44:11.198Z,152677.25
2022-10-17T04:46:37.006Z,152662.00
2022-10-17T04:49:02.849Z,152656.94
2022-10-17T04:51:58.074Z,152665.78
2022-10-17T04:55:13.499Z,152678.50
2022-10-17T04:58:53.861Z,152674.72
2022-10-17T05:02:29.590Z,152672.19
2022-10-17T05:04:55.490Z,152675.97
2022-10-17T05:07:21.354Z,152665.78
2022-10-17T05:09:49.820Z,152634.06
2022-10-17T05:12:31.224Z,152677.25
2022-10-17T05:14:57.219Z,152655.66
2022-10-17T05:17:23.031Z,152654.41
2022-10-17T05:19:48.888Z,152655.66
2022-10-17T05:22:14.748Z,152669.66
2022-10-17T05:25:14.652Z,152662.00
2022-10-17T05:48:27.864Z,152607.38
2022-10-17T05:51:07.182Z,152642.94
2022-10-17T05:53:35.064Z,152630.22
2022-10-17T05:56:03.146Z,152623.91
2022-10-17T05:58:49.253Z,152617.56
2022-10-17T06:01:15.590Z,152607.38
2022-10-17T06:03:41.576Z,152606.13
2022-10-17T06:06:12.283Z,152603.59
2022-10-17T06:08:39.055Z,152597.25
2022-10-17T06:11:07.682Z,152634.06
2022-10-17T06:13:36.018Z,152608.66
2022-10-17T06:16:02.002Z,152627.69
2022-10-17T06:18:28.459Z,152622.63
2022-10-17T06:20:54.346Z,152637.88
2022-10-17T06:23:20.165Z,152622.63
2022-10-17T06:25:45.973Z,152639.16
2022-10-17T06:28:12.125Z,152644.22
2022-10-17T06:30:39.655Z,152648.00
2022-10-17T06:33:05.456Z,152627.69
2022-10-17T06:35:31.533Z,152648.00
2022-10-17T06:37:57.320Z,152651.88
2022-10-17T06:40:23.196Z,152667.06
2022-10-17T06:42:49.058Z,152669.66
2022-10-17T06:45:14.915Z,152670.91
2022-10-17T06:47:40.763Z,152648.00
2022-10-17T06:50:08.988Z,152665.78
2022-10-17T06:52:34.809Z,152677.25
2022-10-17T06:55:00.743Z,152686.16
2022-10-17T06:57:27.490Z,152697.63
2022-10-17T06:59:54.694Z,152728.13
2022-10-17T07:02:20.600Z,152725.59
2022-10-17T07:04:47.080Z,152737.00
2022-10-17T07:07:12.874Z,152748.44
2022-10-17T07:09:38.726Z,152752.25
2022-10-17T07:12:07.341Z,152737.00
2022-10-17T07:14:34.477Z,152772.56
2022-10-17T07:17:01.305Z,152759.91
2022-10-17T07:19:27.162Z,152754.78
2022-10-17T07:21:53.624Z,152785.28
2022-10-17T07:24:19.418Z,152815.81
2022-10-17T07:26:45.280Z,152790.38
2022-10-17T07:29:11.393Z,152801.81
2022-10-17T07:31:37.290Z,152799.28
2022-10-17T07:34:03.467Z,152831.06
2022-10-17T07:36:29.275Z,152836.13
2022-10-17T07:38:55.294Z,152853.94
2022-10-17T07:41:21.923Z,152861.53
2022-10-17T07:43:48.224Z,152869.19
2022-10-17T07:46:14.145Z,152900.94
2022-10-17T07:48:40.860Z,152913.66
2022-10-17T07:51:08.554Z,152913.66
2022-10-17T07:53:38.461Z,152932.72
2022-10-17T07:56:08.754Z,152927.66
2022-10-17T07:58:35.754Z,152951.78
2022-10-17T08:01:03.943Z,152964.50
2022-10-17T08:03:29.942Z,152918.72
2022-10-17T08:06:00.286Z,152925.09
2022-10-17T08:08:27.011Z,152907.31
2022-10-17T08:10:54.590Z,152918.72
2022-10-17T08:13:21.866Z,152936.53
2022-10-17T08:15:48.101Z,152928.91
2022-10-17T08:18:14.789Z,152941.63
2022-10-17T08:20:41.495Z,152963.25
2022-10-17T08:23:07.476Z,152961.97
2022-10-17T08:25:33.358Z,152996.34
2022-10-17T08:27:59.302Z,152993.81
2022-10-17T08:30:25.194Z,152981.09
2022-10-17T08:32:50.993Z,152969.63
2022-10-17T08:35:17.023Z,152974.72
2022-10-17T08:37:42.946Z,152997.63
2022-10-17T08:40:24.713Z,153040.84
2022-10-17T08:43:10.287Z,153025.56
2022-10-17T08:45:46.450Z,153031.97
2022-10-17T08:48:17.329Z,153090.44
2022-10-17T08:50:53.234Z,153119.66
2022-10-17T08:53:40.445Z,153127.31
2022-10-17T08:56:24.856Z,153112.06
2022-10-17T08:59:10.083Z,153145.13
2022-10-17T09:01:38.909Z,153147.66
2022-10-17T09:04:29.845Z,153166.75
2022-10-17T09:07:20.608Z,153196.03
2022-10-17T09:10:16.477Z,153160.41
2022-10-17T09:13:10.606Z,153150.22
2022-10-17T09:16:03.085Z,153193.47
2022-10-17T09:18:40.368Z,153215.09
2022-10-17T09:21:13.655Z,153241.84
2022-10-17T09:23:56.015Z,153295.28
2022-10-17T09:26:30.029Z,153281.28
2022-10-17T09:28:58.672Z,153308.03
2022-10-17T09:31:30.153Z,153384.38
2022-10-17T09:33:59.863Z,153385.63
2022-10-17T09:36:29.421Z,153399.66
2022-10-17T09:38:58.387Z,153482.47
2022-10-17T09:41:50.761Z,153524.47
2022-10-17T09:44:18.704Z,153841.63
2022-10-17T09:47:12.372Z,154022.66
2022-10-17T09:49:40.853Z,154154.06
2022-10-17T09:52:29.883Z,154354.38
2022-10-17T09:55:04.271Z,154584.09
2022-10-17T09:57:51.898Z,154655.59
2022-10-17T10:00:41.480Z,154497.28
2022-10-17T10:03:20.500Z,154866.38
2022-10-17T10:06:04.708Z,155088.78
2022-10-17T10:08:35.975Z,155009.53
2022-10-17T10:11:07.912Z,155133.53
2022-10-17T10:13:35.382Z,155302.31
2022-10-17T10:16:18.168Z,155766.81
2022-10-17T10:18:47.424Z,155823.13
2022-10-17T10:21:21.501Z,155601.69
2022-10-17T10:24:04.459Z,155081.13
2022-10-17T10:26:38.995Z,155008.25
2022-10-17T10:29:25.363Z,154833.16
2022-10-17T10:31:52.608Z,154693.91
2022-10-17T10:34:28.336Z,154437.28
2022-10-17T10:36:58.829Z,154203.78
2022-10-17T10:39:32.706Z,154254.78
2022-10-17T10:42:00.814Z,154217.81
2022-10-17T10:44:29.904Z,154437.28
2022-10-17T10:47:16.758Z,154950.72
2022-10-17T10:49:43.732Z,155391.84
2022-10-17T10:52:33.611Z,155815.47
2022-10-17T10:55:15.412Z,156418.97
2022-10-17T10:57:44.250Z,155798.84
2022-10-17T11:00:22.377Z,155354.75
2022-10-17T11:02:59.822Z,154754.00
2022-10-17T11:05:45.718Z,154386.22
2022-10-17T11:08:16.791Z,154043.06
2022-10-17T11:11:23.117Z,153906.69
2022-10-17T11:13:59.869Z,153882.44
2022-10-17T11:17:06.212Z,153742.28
2022-10-17T11:19:40.189Z,153625.03
2022-10-17T11:22:13.878Z,153644.13
2022-10-17T11:24:58.989Z,153690.06
2022-10-17T11:27:29.232Z,153649.25
2022-10-17T11:29:56.009Z,153692.59
2022-10-17T11:32:35.776Z,153730.78
2022-10-17T11:35:16.079Z,153747.38
2022-10-17T11:37:50.014Z,153721.91
2022-10-17T11:40:29.191Z,153705.34
2022-10-17T11:43:01.713Z,153737.19
2022-10-17T11:45:33.270Z,153701.53
2022-10-17T11:48:11.816Z,153625.03
2022-10-17T11:54:04.162Z,153642.84
2022-10-17T11:56:57.517Z,153670.91
2022-10-17T11:59:42.200Z,153682.38
2022-10-17T12:02:14.984Z,153607.19
2022-10-17T12:04:49.135Z,153648.00
2022-10-17T12:07:37.554Z,153622.50
2022-10-17T12:10:31.138Z,153611.06
2022-10-17T12:12:57.285Z,153602.13
2022-10-17T12:15:23.125Z,153607.19
2022-10-17T12:18:03.375Z,153520.66
2022-10-17T12:20:30.455Z,153520.66
2022-10-17T12:23:11.210Z,153512.97
2022-10-17T12:26:01.213Z,153487.53
2022-10-17T12:28:47.522Z,153496.44
2022-10-17T12:31:16.689Z,153523.19
2022-10-17T12:33:45.662Z,153565.19
2022-10-17T12:36:26.564Z,153577.94
2022-10-17T12:39:01.673Z,153557.56
2022-10-17T12:41:40.156Z,153546.09
2022-10-17T12:44:20.870Z,153585.56
2022-10-17T12:46:48.959Z,153588.09
2022-10-17T12:49:36.610Z,153551.16
2022-10-17T12:52:24.936Z,153714.22
2022-10-17T12:55:07.134Z,153663.28
2022-10-17T12:58:14.976Z,153746.09
2022-10-17T13:01:05.136Z,153723.19
2022-10-17T13:03:41.142Z,153751.19
2022-10-17T13:06:07.146Z,153747.38
2022-10-17T13:08:38.286Z,153771.56
2022-10-17T13:11:05.930Z,153755.03
2022-10-17T13:13:44.946Z,153735.94
2022-10-17T13:16:32.360Z,153715.50
2022-10-17T13:19:00.206Z,153783.03
2022-10-17T13:21:26.798Z,153775.41
2022-10-17T13:23:53.768Z,153786.84
2022-10-17T13:26:27.977Z,153723.19
2022-10-17T13:29:04.769Z,153716.78
2022-10-17T13:31:36.484Z,153698.94
2022-10-17T13:34:05.141Z,153670.91
2022-10-17T13:36:33.247Z,153650.53
2022-10-17T13:39:04.702Z,153576.66
2022-10-17T13:41:36.152Z,153562.66
2022-10-17T13:44:06.914Z,153567.72
2022-10-17T13:46:38.308Z,153549.91
2022-10-17T13:49:17.229Z,153495.16
2022-10-17T13:51:49.208Z,153465.91
2022-10-17T13:54:42.352Z,153449.31
2022-10-17T13:57:27.148Z,153437.84
2022-10-17T13:59:57.485Z,153416.19
2022-10-17T14:02:26.865Z,153413.66
2022-10-17T14:05:16.789Z,153416.19
2022-10-17T14:08:10.109Z,153408.53
2022-10-17T14:10:34.180Z,153416.19
2022-10-17T14:13:03.555Z,153403.47
2022-10-17T14:15:31.438Z,153398.38
2022-10-17T14:18:08.035Z,153375.50
2022-10-17T14:23:32.689Z,153392.03
2022-10-17T14:26:22.137Z,153403.47
2022-10-17T14:29:05.460Z,153394.56
2022-10-17T14:31:37.450Z,153418.75
2022-10-17T14:34:04.235Z,153414.94
2022-10-17T14:36:34.142Z,153432.75
2022-10-17T14:39:01.758Z,153393.31
2022-10-17T14:41:47.300Z,153364.00
2022-10-17T14:44:25.104Z,153370.34
2022-10-17T14:46:54.915Z,153398.38
2022-10-17T14:49:34.196Z,153386.91
2022-10-17T14:52:12.374Z,153398.38
2022-10-17T14:54:45.887Z,153422.53
2022-10-17T14:57:26.494Z,153437.84
2022-10-17T14:59:55.613Z,153444.19
2022-10-17T15:02:27.030Z,153422.53
2022-10-17T15:04:53.396Z,153418.75
2022-10-17T15:07:20.584Z,153413.66
2022-10-17T15:09:48.589Z,153413.66
2022-10-17T15:12:17.246Z,153403.47
2022-10-17T15:14:44.049Z,153389.44
2022-10-17T15:17:15.712Z,153372.91
2022-10-17T15:19:41.677Z,153371.63
2022-10-17T15:22:07.522Z,153370.34
2022-10-17T15:24:33.336Z,153364.00
2022-10-17T15:26:59.156Z,153338.59
2022-10-17T15:29:25.103Z,153348.75
2022-10-17T15:31:50.892Z,153332.19
2022-10-17T15:34:16.724Z,153336.00
2022-10-17T15:36:51.307Z,153328.38
2022-10-17T15:39:17.172Z,153315.63
2022-10-17T15:41:43.416Z,153323.31
2022-10-17T15:44:09.263Z,153327.13
2022-10-17T15:46:35.392Z,153325.84
2022-10-17T15:49:09.367Z,153315.63
2022-10-17T15:51:35.408Z,153301.69
2022-10-17T15:54:01.458Z,153281.28
2022-10-17T15:56:35.142Z,153296.56
2022-10-17T15:59:07.045Z,153291.47
2022-10-17T16:01:33.617Z,153272.41
2022-10-17T16:04:00.137Z,153278.75
2022-10-17T16:06:26.309Z,153271.13
2022-10-17T16:08:52.312Z,153262.19
2022-10-17T16:11:31.938Z,153262.19
2022-10-17T16:14:00.684Z,153238.03
2022-10-17T16:16:28.209Z,153240.56
2022-10-17T16:18:54.187Z,153235.50
2022-10-17T16:21:24.521Z,153227.84
2022-10-17T16:23:50.887Z,153240.56
2022-10-17T16:26:16.770Z,153241.84
2022-10-17T16:28:46.070Z,153209.97
2022-10-17T16:31:17.793Z,153207.44
2022-10-17T16:33:43.533Z,153198.56
2022-10-17T16:36:09.772Z,153189.63
2022-10-17T16:38:35.614Z,153182.03
2022-10-17T16:41:01.479Z,153189.63
2022-10-17T16:43:29.386Z,153188.38
2022-10-17T16:45:55.150Z,153187.09
2022-10-17T16:48:21.347Z,153171.81
2022-10-17T16:50:48.205Z,153161.66
2022-10-17T16:53:14.000Z,153148.94
2022-10-17T16:55:39.832Z,153148.94
2022-10-17T16:58:05.623Z,153146.41
2022-10-17T17:00:31.946Z,153154.00
2022-10-17T17:02:57.732Z,153147.66
2022-10-17T17:05:23.528Z,153109.53
2022-10-17T17:07:49.382Z,153098.06
2022-10-17T17:10:15.318Z,153099.31
2022-10-17T17:12:41.173Z,153087.91
2022-10-17T17:15:07.674Z,153081.53
2022-10-17T17:17:52.483Z,153090.44
2022-10-17T17:20:20.114Z,153098.06
2022-10-17T17:22:45.914Z,153077.72
2022-10-17T17:25:27.567Z,153045.91
2022-10-17T17:32:34.159Z,153033.22
2022-10-17T17:35:04.597Z,153014.16
2022-10-17T17:37:30.590Z,153023.03
2022-10-17T17:39:56.670Z,153011.63
2022-10-17T17:42:25.244Z,153016.69
2022-10-17T17:44:51.574Z,153009.03
2022-10-17T17:47:18.014Z,153031.97
2022-10-17T17:49:43.839Z,153021.75
2022-10-17T17:52:09.697Z,153005.22
2022-10-17T17:54:38.561Z,152991.25
2022-10-17T17:57:06.890Z,152977.28
2022-10-17T17:59:32.738Z,152937.78
2022-10-17T18:01:58.646Z,152970.91
2022-10-17T18:04:24.506Z,152969.63
2022-10-17T18:06:50.317Z,152968.38
2022-10-17T18:09:16.146Z,152918.72
2022-10-17T18:11:41.915Z,152921.31
2022-10-17T18:14:11.657Z,152936.53
2022-10-17T18:16:37.798Z,152925.09
2022-10-17T18:19:07.163Z,152931.44
2022-10-17T18:21:33.643Z,152859.00
2022-10-17T18:23:59.542Z,152867.91
2022-10-17T18:26:25.674Z,152848.84
2022-10-17T18:28:51.487Z,152833.59
2022-10-17T18:31:23.660Z,152847.53
2022-10-17T18:33:54.407Z,152824.69
2022-10-17T18:36:21.213Z,152813.28
2022-10-17T18:38:48.021Z,152829.75
2022-10-17T18:41:16.459Z,152843.75
2022-10-17T18:43:44.310Z,152824.69
2022-10-17T18:46:14.941Z,152825.94
2022-10-17T18:48:43.704Z,152831.06
2022-10-17T18:51:10.221Z,152800.56
2022-10-17T18:53:43.370Z,152817.06
2022-10-17T18:56:09.989Z,152813.28
2022-10-17T18:58:37.521Z,152828.47
2022-10-17T19:01:09.626Z,152843.75
2022-10-17T19:03:35.578Z,152824.69
2022-10-17T19:06:03.444Z,152799.28
2022-10-17T19:08:29.800Z,152789.09
2022-10-17T19:10:55.996Z,152805.63
2022-10-17T19:13:21.867Z,152817.06
2022-10-17T19:15:47.809Z,152810.69
2022-10-17T19:18:13.603Z,152801.81
2022-10-17T19:20:39.412Z,152781.50
2022-10-17T19:23:05.171Z,152770.03
2022-10-17T19:25:33.064Z,152763.69
2022-10-17T19:27:58.924Z,152762.44
2022-10-17T19:30:24.768Z,152771.31
2022-10-17T19:32:50.664Z,152780.22
2022-10-17T19:35:16.501Z,152771.31
2022-10-17T19:37:42.427Z,152759.91
2022-10-17T19:40:08.772Z,152750.97
2022-10-17T19:42:34.659Z,152747.19
2022-10-17T19:45:01.735Z,152729.38
2022-10-17T19:47:27.983Z,152749.72
2022-10-17T19:49:53.782Z,152754.78
2022-10-17T19:52:19.726Z,152745.91
2022-10-17T19:54:45.582Z,152752.25
2022-10-17T19:57:11.789Z,152772.56
2022-10-17T19:59:37.668Z,152715.41
2022-10-17T20:02:03.858Z,152714.13
2022-10-17T20:04:30.084Z,152719.22
2022-10-17T20:06:59.056Z,152720.47
2022-10-17T20:09:26.137Z,152721.75
2022-10-17T20:11:51.953Z,152704.00
2022-10-17T20:14:17.798Z,152696.34
2022-10-17T20:16:44.112Z,152714.13
2022-10-17T20:19:12.295Z,152673.44
2022-10-17T20:21:38.982Z,152683.59
2022-10-17T20:24:07.466Z,152681.03
2022-10-17T20:26:38.167Z,152622.63
2022-10-17T20:29:13.107Z,152662.00
2022-10-17T20:31:40.610Z,152665.78
2022-10-17T20:34:06.627Z,152682.31
2022-10-17T20:36:35.913Z,152668.38
2022-10-17T20:39:02.122Z,152669.66
2022-10-17T20:41:27.926Z,152678.50
2022-10-17T20:43:54.895Z,152686.16
2022-10-17T20:46:35.911Z,152682.31
2022-10-17T20:49:07.074Z,152700.16
2022-10-17T20:51:33.959Z,152697.63
2022-10-17T20:53:59.979Z,152692.50
2022-10-17T20:56:28.253Z,152687.44
2022-10-17T20:58:56.451Z,152696.34
2022-10-17T21:01:22.968Z,152701.41
2022-10-17T21:03:49.130Z,152688.69
2022-10-17T21:06:16.026Z,152646.75
2022-10-17T21:09:14.666Z,152653.13
2022-10-17T21:14:55.435Z,152618.81
2022-10-17T21:17:49.350Z,152583.25
2022-10-17T21:28:09.544Z,152582.00
2022-10-17T21:30:35.335Z,152557.84
2022-10-17T21:33:01.108Z,152551.50
2022-10-17T21:35:26.847Z,152566.75
2022-10-17T21:37:52.601Z,152555.31
2022-10-17T21:40:23.567Z,152542.63
2022-10-17T21:42:49.328Z,152552.78
2022-10-17T21:45:24.860Z,152532.47
2022-10-17T21:48:12.307Z,152542.63
2022-10-17T21:50:38.629Z,152552.78
2022-10-17T21:53:04.428Z,152547.69
2022-10-17T21:55:30.211Z,152542.63
2022-10-17T21:57:56.000Z,152542.63
2022-10-17T22:00:21.795Z,152564.22
2022-10-17T22:02:47.645Z,152519.75
2022-10-17T22:05:13.502Z,152526.13
2022-10-17T22:07:39.396Z,152547.69
2022-10-17T22:10:05.486Z,152540.06
2022-10-17T22:12:31.587Z,152500.69
2022-10-17T22:14:57.560Z,152507.09
2022-10-17T22:17:23.291Z,152526.13
2022-10-17T22:19:49.075Z,152543.91
2022-10-17T22:22:14.821Z,152545.16
2022-10-17T22:24:40.632Z,152543.91
2022-10-17T22:27:08.919Z,152540.06
2022-10-17T22:29:34.729Z,152542.63
2022-10-17T22:32:00.515Z,152536.25
2022-10-17T22:34:26.330Z,152529.94
2022-10-17T22:36:52.485Z,152452.50
2022-10-17T22:39:18.354Z,152491.84
2022-10-17T22:41:44.117Z,152508.34
2022-10-17T22:44:09.927Z,152479.13
2022-10-17T22:46:35.828Z,152418.19
2022-10-17T22:49:01.904Z,152427.06
2022-10-17T22:51:27.704Z,152433.44
2022-10-17T22:53:53.679Z,152424.53
2022-10-17T22:56:20.833Z,152401.66
2022-10-17T22:58:47.278Z,152381.34
2022-10-17T23:01:16.633Z,152392.75
2022-10-17T23:03:42.856Z,152387.69
2022-10-17T23:06:09.266Z,152374.97
2022-10-17T23:08:35.570Z,152428.34
2022-10-17T23:11:01.372Z,152401.66
2022-10-17T23:13:27.572Z,152413.09
2022-10-17T23:15:55.943Z,152424.53
2022-10-17T23:18:23.065Z,152437.25
2022-10-17T23:20:49.636Z,152433.44
2022-10-17T23:23:15.811Z,152443.56
2022-10-17T23:25:41.578Z,152443.56
2022-10-17T23:28:08.005Z,152488.03
2022-10-17T23:30:33.859Z,152385.16
2022-10-17T23:32:59.874Z,152387.69
2022-10-17T23:35:25.764Z,152394.00
2022-10-17T23:37:51.646Z,152428.34
2022-10-17T23:40:17.600Z,152442.31
2022-10-17T23:42:44.309Z,152441.03
2022-10-17T23:45:10.434Z,152452.50
2022-10-17T23:47:36.580Z,152428.34
2022-10-17T23:50:03.515Z,152434.72
2022-10-17T23:52:29.270Z,152460.09
2022-10-17T23:54:55.037Z,152449.91
2022-10-17T23:57:20.999Z,152457.56
2022-10-17T23:59:46.854Z,152451.22
